Time;durP1;ratioP1;P1;durP2;ratioP2;P2;SDS_P1;SDS_P2;PMS_P1;PMS_P2;Temp;Humidity;BMP_temperature;BMP_pressure;BME280_temperature;BME280_humidity;BME280_pressure;Samples;Min_cycle;Max_cycle;Signal;HPM_P1;HPM_P2
2021/12/27 00:01:52;;;;;;;;;6.75;4.75;;;;;17.94;44.92;99716.38;5095655;27;50922;-47
2021/12/27 00:04:17;;;;;;;;;2.75;2.25;;;;;17.94;44.90;99713.63;5095844;27;50977;-50
2021/12/27 00:06:42;;;;;;;;;4.00;4.00;;;;;17.94;44.92;99707.31;5095239;27;51733;-51
2021/12/27 00:09:08;;;;;;;;;6.00;5.25;;;;;17.94;44.80;99707.31;5095804;27;50987;-51
2021/12/27 00:11:33;;;;;;;;;4.25;4.25;;;;;17.93;44.73;99692.78;5095703;27;50910;-47
2021/12/27 00:13:58;;;;;;;;;3.00;2.75;;;;;17.94;44.73;99691.72;5095888;27;51159;-50
2021/12/27 00:16:24;;;;;;;;;3.00;2.00;;;;;17.93;44.99;99691.94;5095502;27;51132;-47
2021/12/27 00:18:49;;;;;;;;;2.00;2.00;;;;;17.93;44.94;99684.56;5078709;27;51022;-50
2021/12/27 00:21:15;;;;;;;;;3.00;2.25;;;;;17.93;44.68;99686.47;5075101;27;51371;-49
2021/12/27 00:23:40;;;;;;;;;2.25;2.25;;;;;17.93;44.82;99684.56;5078449;27;50973;-46
2021/12/27 00:26:06;;;;;;;;;3.00;3.00;;;;;17.93;45.09;99684.56;5080916;27;51760;-50
2021/12/27 00:28:33;;;;;;;;;3.00;2.50;;;;;17.94;44.89;99690.88;5099229;27;51020;-53
2021/12/27 00:30:59;;;;;;;;;5.50;4.75;;;;;17.93;44.81;99683.72;5099125;27;50976;-48
2021/12/27 00:33:25;;;;;;;;;2.50;2.50;;;;;17.93;45.00;99679.06;5099002;27;50925;-50
2021/12/27 00:35:51;;;;;;;;;1.75;1.75;;;;;17.94;44.65;99677.16;5098905;27;51723;-51
2021/12/27 00:38:16;;;;;;;;;2.00;2.00;;;;;17.93;44.86;99673.59;5098548;27;50918;-48
2021/12/27 00:40:42;;;;;;;;;4.00;3.25;;;;;17.94;44.86;99668.94;5099119;27;51190;-49
2021/12/27 00:43:08;;;;;;;;;3.00;1.50;;;;;17.94;44.78;99671.69;5099079;27;51145;-50
2021/12/27 00:45:34;;;;;;;;;3.00;1.50;;;;;17.94;45.07;99668.94;5098625;27;51122;-53
2021/12/27 00:47:59;;;;;;;;;2.00;1.00;;;;;17.94;44.93;99671.69;5098581;27;51119;-50
2021/12/27 00:50:26;;;;;;;;;4.75;2.00;;;;;17.93;45.17;99679.06;5098863;27;51245;-51
2021/12/27 00:52:51;;;;;;;;;1.50;1.50;;;;;17.94;44.97;99671.69;5098901;27;51043;-50
2021/12/27 00:55:17;;;;;;;;;1.00;1.00;;;;;17.94;44.93;99669.78;5098318;27;51080;-50
2021/12/27 00:57:43;;;;;;;;;3.00;3.00;;;;;17.95;44.98;99667.88;5098505;27;51035;-51
2021/12/27 01:00:11;;;;;;;;;1.00;1.00;;;;;17.94;45.20;99671.69;5098543;27;51121;-47
2021/12/27 01:02:37;;;;;;;;;4.00;2.00;;;;;17.94;45.20;99671.69;5098602;27;51464;-52
2021/12/27 01:05:03;;;;;;;;;1.50;1.50;;;;;17.94;44.94;99661.56;5098270;27;50983;-50
2021/12/27 01:07:29;;;;;;;;;1.75;1.00;;;;;17.94;44.92;99661.56;5098241;27;51173;-48
2021/12/27 01:10:06;;;;;;;;;2.00;2.00;;;;;17.94;45.05;99660.72;5098338;27;50974;-49
2021/12/27 01:12:48;;;;;;;;;1.25;1.25;;;;;17.95;45.26;99656.91;5098785;27;51203;-50
2021/12/27 01:17:50;;;;;;;;;2.75;1.75;;;;;17.94;44.90;99658.81;5090294;27;51298;-50
2021/12/27 01:20:22;;;;;;;;;1.25;0.50;;;;;17.95;45.39;99648.69;5077839;28;51103;-51
2021/12/27 01:22:47;;;;;;;;;1.00;1.00;;;;;17.95;45.22;99648.69;5078024;27;51920;-51
2021/12/27 01:25:13;;;;;;;;;1.00;1.00;;;;;17.95;44.70;99648.69;5077720;28;51028;-49
2021/12/27 01:27:40;;;;;;;;;2.00;2.00;;;;;17.95;44.93;99648.69;5093059;27;50953;-47
2021/12/27 01:30:08;;;;;;;;;3.75;1.00;;;;;17.96;45.05;99644.88;5098262;27;51030;-48
2021/12/27 01:32:39;;;;;;;;;2.00;2.00;;;;;17.96;44.99;99647.63;5098225;27;50945;-50
2021/12/27 01:35:06;;;;;;;;;1.00;1.00;;;;;17.95;44.95;99635.00;5097892;27;52052;-51
2021/12/27 01:37:31;;;;;;;;;1.75;0.75;;;;;17.95;45.18;99627.63;5098015;27;51032;-50
2021/12/27 01:39:57;;;;;;;;;0.25;0.25;;;;;17.94;45.11;99631.44;5096783;27;51710;-51
2021/12/27 01:42:22;;;;;;;;;2.00;0.00;;;;;17.95;45.03;99626.78;5098544;27;51063;-51
2021/12/27 01:44:48;;;;;;;;;1.00;1.00;;;;;17.95;45.13;99627.63;5097583;27;51988;-48
2021/12/27 01:47:13;;;;;;;;;1.00;1.00;;;;;17.95;45.09;99624.03;5098003;27;51000;-51
2021/12/27 01:49:39;;;;;;;;;0.50;0.50;;;;;17.95;44.94;99616.66;5096507;27;51186;-51
2021/12/27 01:52:05;;;;;;;;;1.00;0.25;;;;;17.95;45.04;99616.66;5096374;27;51035;-50
2021/12/27 01:54:31;;;;;;;;;1.00;1.00;;;;;17.95;45.08;99613.91;5097717;27;51821;-51
2021/12/27 01:56:57;;;;;;;;;2.75;0.75;;;;;17.95;44.98;99613.09;5097733;27;51092;-52
2021/12/27 01:59:22;;;;;;;;;1.00;0.50;;;;;17.95;44.97;99616.66;5097920;27;51090;-50
2021/12/27 02:01:48;;;;;;;;;1.00;1.00;;;;;17.94;45.18;99620.47;5097871;27;51262;-50
2021/12/27 02:04:13;;;;;;;;;0.00;0.00;;;;;17.96;45.22;99620.22;5097453;27;52006;-52
2021/12/27 02:06:39;;;;;;;;;0.50;0.00;;;;;17.95;45.02;99618.56;5097588;27;51005;-50
2021/12/27 02:09:04;;;;;;;;;0.25;0.25;;;;;17.95;44.84;99616.66;5097740;27;51167;-48
2021/12/27 02:11:34;;;;;;;;;3.00;1.00;;;;;17.95;44.87;99616.66;5097956;27;51216;-50
2021/12/27 02:14:04;;;;;;;;;1.25;1.00;;;;;17.96;44.95;99620.22;5097221;27;52734;-49
2021/12/27 02:16:29;;;;;;;;;1.00;1.00;;;;;17.96;45.20;99612.84;5097432;27;51056;-52
2021/12/27 02:18:54;;;;;;;;;0.00;0.00;;;;;17.96;45.05;99612.00;5079677;27;51072;-46
2021/12/27 02:21:21;;;;;;;;;0.00;0.00;;;;;17.95;44.95;99605.69;5077297;28;51315;-47
2021/12/27 02:23:49;;;;;;;;;0.75;0.75;;;;;17.95;45.06;99611.19;5076552;28;52140;-47
2021/12/27 02:26:14;;;;;;;;;1.00;0.00;;;;;17.95;44.89;99607.59;5080332;27;51262;-51
2021/12/27 02:28:40;;;;;;;;;2.00;1.00;;;;;17.96;45.08;99601.06;5097442;27;51143;-51
2021/12/27 02:31:06;;;;;;;;;1.00;1.00;;;;;17.96;44.96;99601.06;5097495;27;51065;-51
2021/12/27 02:33:31;;;;;;;;;1.00;1.00;;;;;17.96;44.97;99601.06;5096921;27;51039;-50
2021/12/27 02:35:58;;;;;;;;;1.75;1.25;;;;;17.95;45.00;99592.00;5097068;27;50991;-49
2021/12/27 02:38:27;;;;;;;;;1.50;0.75;;;;;17.95;45.10;99600.22;5097307;27;51403;-49
2021/12/27 02:40:53;;;;;;;;;0.50;0.50;;;;;17.94;45.23;99590.34;5097243;27;50985;-48
2021/12/27 02:43:22;;;;;;;;;0.50;0.50;;;;;17.95;45.22;99596.66;5097061;27;52020;-49
2021/12/27 02:45:50;;;;;;;;;0.00;0.00;;;;;17.95;45.05;99596.66;5096629;27;51004;-50
2021/12/27 02:48:18;;;;;;;;;0.00;0.00;;;;;17.94;45.03;99592.25;5096753;27;51194;-48
2021/12/27 02:50:46;;;;;;;;;0.50;0.50;;;;;17.95;44.94;99588.44;5096984;27;50941;-49
2021/12/27 02:53:12;;;;;;;;;1.00;0.00;;;;;17.96;44.92;99585.44;5096586;27;51865;-50
2021/12/27 02:55:39;;;;;;;;;1.50;0.00;;;;;17.95;44.95;99589.25;5096834;27;50993;-45
2021/12/27 02:58:05;;;;;;;;;0.00;0.00;;;;;17.96;45.19;99581.88;5096559;27;51095;-49
2021/12/27 03:00:53;;;;;;;;;0.00;0.00;;;;;17.96;45.12;99574.47;5096876;27;51241;-50
2021/12/27 03:03:19;;;;;;;;;0.75;0.75;;;;;17.97;45.24;99569.84;5096018;27;51039;-52
2021/12/27 03:05:46;;;;;;;;;0.00;0.00;;;;;17.96;45.10;99571.75;5096751;27;51429;-48
2021/12/27 03:08:14;;;;;;;;;1.75;1.75;;;;;17.96;45.24;99569.00;5096458;27;50977;-51
2021/12/27 03:10:45;;;;;;;;;0.25;0.25;;;;;17.95;45.00;99570.06;5096923;27;51059;-50
2021/12/27 03:13:19;;;;;;;;;0.25;0.00;;;;;17.96;45.03;99568.16;5096414;27;51966;-47
2021/12/27 03:15:45;;;;;;;;;2.00;0.00;;;;;17.96;45.04;99577.22;5096441;27;51362;-47
2021/12/27 03:18:12;;;;;;;;;3.00;0.00;;;;;17.96;45.02;99571.75;5084922;27;50906;-47
2021/12/27 03:20:38;;;;;;;;;1.00;1.00;;;;;17.96;45.12;99568.16;5076265;27;50937;-48
2021/12/27 03:23:03;;;;;;;;;1.00;1.00;;;;;17.97;45.26;99567.09;5075689;27;51703;-52
2021/12/27 03:25:28;;;;;;;;;1.25;0.75;;;;;17.96;45.25;99563.53;5076108;27;51076;-51
2021/12/27 03:27:54;;;;;;;;;0.25;0.00;;;;;17.96;45.13;99566.25;5093485;27;51443;-50
2021/12/27 03:30:22;;;;;;;;;2.50;0.00;;;;;17.96;45.17;99557.22;5096434;27;51182;-49
2021/12/27 03:32:48;;;;;;;;;0.50;0.50;;;;;17.96;45.02;99559.94;5096087;27;52045;-47
2021/12/27 03:35:18;;;;;;;;;2.00;0.50;;;;;17.96;45.19;99555.31;5096226;27;50948;-49
2021/12/27 03:37:47;;;;;;;;;1.00;1.00;;;;;17.96;45.26;99549.00;5096226;27;51007;-49
2021/12/27 03:40:16;;;;;;;;;0.00;0.00;;;;;17.96;44.92;99546.25;5096518;27;51310;-50
2021/12/27 03:42:41;;;;;;;;;0.25;0.25;;;;;17.96;44.93;99549.81;5096115;27;51798;-51
2021/12/27 03:45:08;;;;;;;;;1.25;0.25;;;;;17.96;45.25;99532.56;5096227;27;50958;-48
2021/12/27 03:47:34;;;;;;;;;1.25;0.50;;;;;17.96;45.24;99544.34;5096098;27;51071;-48
2021/12/27 03:50:00;;;;;;;;;1.25;1.25;;;;;17.96;44.92;99532.56;5096336;27;51082;-50
2021/12/27 03:52:25;;;;;;;;;0.00;0.00;;;;;17.95;45.25;99523.50;5095641;27;51762;-51
2021/12/27 03:54:51;;;;;;;;;1.75;0.25;;;;;17.95;45.10;99523.50;5096414;27;51080;-49
2021/12/27 03:57:16;;;;;;;;;3.00;0.00;;;;;17.96;45.04;99524.34;5097203;27;51149;-47
2021/12/27 04:02:10;;;;;;;;;2.50;0.50;;;;;17.96;45.43;99518.84;5099447;27;51083;-50
2021/12/27 04:04:35;;;;;;;;;0.00;0.00;;;;;17.95;44.85;99522.66;5099352;27;51206;-50
2021/12/27 04:07:01;;;;;;;;;1.00;1.00;;;;;17.95;45.34;99515.28;5098171;27;51436;-47
2021/12/27 04:09:27;;;;;;;;;1.75;0.50;;;;;17.95;44.97;99517.19;5097962;27;51166;-45
2021/12/27 04:11:53;;;;;;;;;0.75;0.75;;;;;17.95;45.11;99520.75;5099305;27;51942;-51
2021/12/27 04:14:18;;;;;;;;;0.00;0.00;;;;;17.95;45.38;99514.44;5099374;27;51147;-48
2021/12/27 04:16:44;;;;;;;;;0.75;0.75;;;;;17.97;45.09;99512.31;5099499;27;51142;-49
2021/12/27 04:19:09;;;;;;;;;0.00;0.00;;;;;17.96;45.29;99513.38;5079860;27;51263;-51
2021/12/27 04:21:35;;;;;;;;;0.00;0.00;;;;;17.95;45.27;99518.03;5078258;27;51079;-51
2021/12/27 04:24:01;;;;;;;;;0.00;0.00;;;;;17.95;45.17;99511.72;5078807;27;51380;-49
2021/12/27 04:26:26;;;;;;;;;0.75;0.75;;;;;17.95;45.14;99509.81;5084202;27;51056;-51
2021/12/27 04:28:52;;;;;;;;;1.00;1.00;;;;;17.96;45.28;99503.25;5097826;27;51042;-51
2021/12/27 04:31:17;;;;;;;;;1.25;1.25;;;;;17.95;45.09;99509.81;5098964;27;51046;-52
2021/12/27 04:33:42;;;;;;;;;1.00;1.00;;;;;17.95;45.11;99506.22;5098704;27;51044;-50
2021/12/27 04:36:08;;;;;;;;;3.00;0.00;;;;;17.96;45.33;99506.00;5099167;27;51149;-46
2021/12/27 04:38:35;;;;;;;;;2.25;0.00;;;;;17.96;45.17;99507.91;5098940;27;51052;-51
2021/12/27 04:41:01;;;;;;;;;2.00;1.00;;;;;17.96;45.21;99513.38;5098683;27;52793;-49
2021/12/27 04:43:27;;;;;;;;;1.75;0.00;;;;;17.95;45.19;99512.53;5099126;27;51326;-47
2021/12/27 04:45:54;;;;;;;;;1.00;1.00;;;;;17.96;45.16;99508.72;5098664;27;51052;-52
2021/12/27 04:48:21;;;;;;;;;1.25;0.00;;;;;17.96;45.34;99511.47;5099068;27;51198;-54
2021/12/27 04:50:47;;;;;;;;;1.50;1.00;;;;;17.96;45.37;99518.84;5098720;27;51788;-51
2021/12/27 04:53:12;;;;;;;;;0.00;0.00;;;;;17.97;45.27;99512.31;5098731;27;51078;-51
2021/12/27 04:55:38;;;;;;;;;0.00;0.00;;;;;17.95;45.18;99517.19;5097664;27;51251;-52
2021/12/27 04:58:07;;;;;;;;;1.75;0.75;;;;;17.97;45.17;99528.75;5098700;27;51048;-53
2021/12/27 05:00:32;;;;;;;;;2.00;1.00;;;;;17.96;45.28;99527.91;5098388;27;51775;-50
2021/12/27 05:02:58;;;;;;;;;1.00;1.00;;;;;17.97;45.19;99532.31;5098602;27;50918;-52
2021/12/27 05:05:25;;;;;;;;;1.00;1.00;;;;;17.97;44.96;99528.75;5098881;27;51112;-52
2021/12/27 05:07:51;;;;;;;;;1.00;0.25;;;;;17.97;45.03;99528.75;5097980;27;51220;-47
2021/12/27 05:10:16;;;;;;;;;1.50;1.00;;;;;17.96;45.20;99533.38;5098180;27;52493;-47
2021/12/27 05:12:43;;;;;;;;;1.00;1.00;;;;;17.97;45.30;99534.22;5098644;27;51057;-53
2021/12/27 05:15:09;;;;;;;;;1.25;0.75;;;;;17.97;45.21;99545.19;5098143;27;51200;-52
2021/12/27 05:17:34;;;;;;;;;0.25;0.00;;;;;17.97;45.26;99547.91;5092368;27;50895;-51
2021/12/27 05:20:04;;;;;;;;;0.00;0.00;;;;;17.97;45.29;99542.44;5077562;27;50891;-48
2021/12/27 05:22:30;;;;;;;;;0.25;0.00;;;;;17.97;45.27;99531.47;5077795;27;51374;-51
2021/12/27 05:24:55;;;;;;;;;2.00;0.50;;;;;17.97;45.10;99532.31;5078031;27;51191;-50
2021/12/27 05:27:20;;;;;;;;;2.00;0.00;;;;;17.96;45.02;99529.81;5089576;27;51467;-53
2021/12/27 05:29:46;;;;;;;;;1.00;1.00;;;;;17.97;45.22;99534.22;5098071;27;51898;-49
2021/12/27 05:32:11;;;;;;;;;1.50;0.50;;;;;17.97;45.08;99531.47;5098016;27;51121;-51
2021/12/27 05:34:36;;;;;;;;;0.00;0.00;;;;;17.97;45.43;99528.75;5098130;27;51067;-53
2021/12/27 05:37:03;;;;;;;;;1.00;1.00;;;;;17.95;45.22;99523.50;5096823;27;51257;-49
2021/12/27 05:39:28;;;;;;;;;0.00;0.00;;;;;17.97;45.09;99512.31;5097914;27;53508;-50
2021/12/27 05:41:54;;;;;;;;;1.00;1.00;;;;;17.96;45.40;99508.72;5098038;27;51088;-49
2021/12/27 05:44:19;;;;;;;;;0.00;0.00;;;;;17.97;45.11;99506.81;5098108;27;51184;-49
2021/12/27 05:46:45;;;;;;;;;1.00;1.00;;;;;17.96;45.05;99496.94;5098346;27;51227;-52
2021/12/27 05:49:10;;;;;;;;;1.00;1.00;;;;;17.96;45.33;99486.81;5097480;27;51059;-50
2021/12/27 05:51:36;;;;;;;;;0.00;0.00;;;;;17.96;45.30;99485.97;5097890;27;50917;-50
2021/12/27 05:54:03;;;;;;;;;2.00;1.00;;;;;17.96;45.10;99475.84;5098049;27;51079;-53
2021/12/27 05:56:29;;;;;;;;;0.00;0.00;;;;;17.95;44.96;99463.22;5097966;27;51441;-50
2021/12/27 05:58:54;;;;;;;;;1.00;1.00;;;;;17.97;45.18;99457.50;5097622;27;51119;-50
2021/12/27 06:01:20;;;;;;;;;0.50;0.50;;;;;17.96;45.16;99453.09;5097891;27;51420;-49
2021/12/27 06:03:45;;;;;;;;;0.25;0.25;;;;;17.95;45.19;99435.81;5097663;27;51112;-49
2021/12/27 06:06:10;;;;;;;;;1.00;1.00;;;;;17.96;45.08;99428.44;5097963;27;51349;-51
2021/12/27 06:08:36;;;;;;;;;1.00;1.00;;;;;17.94;45.29;99420.47;5097134;27;51764;-47
2021/12/27 06:11:01;;;;;;;;;0.75;0.75;;;;;17.95;45.13;99419.38;5097641;27;51080;-48
2021/12/27 06:13:27;;;;;;;;;0.00;0.00;;;;;17.95;45.27;99402.13;5097695;27;51039;-48
2021/12/27 06:15:52;;;;;;;;;0.75;0.75;;;;;17.96;45.26;99409.25;5097248;27;51148;-48
2021/12/27 06:18:17;;;;;;;;;2.00;1.00;;;;;17.96;45.32;99393.66;5084699;27;51049;-50
2021/12/27 06:20:43;;;;;;;;;2.00;1.00;;;;;17.96;45.38;99381.88;5076128;27;51196;-49
2021/12/27 06:23:08;;;;;;;;;0.75;0.75;;;;;17.94;44.87;99371.16;5077044;27;51083;-48
2021/12/27 06:25:33;;;;;;;;;0.25;0.25;;;;;17.94;45.23;99359.34;5076986;28;51331;-51
2021/12/27 06:27:59;;;;;;;;;2.00;1.00;;;;;17.95;45.14;99353.63;5095070;27;51733;-48
2021/12/27 06:30:24;;;;;;;;;1.25;1.00;;;;;17.96;45.34;99346.25;5097152;27;51031;-49
2021/12/27 06:32:50;;;;;;;;;0.00;0.00;;;;;17.95;45.29;99339.94;5097147;27;51047;-47
2021/12/27 06:35:17;;;;;;;;;0.25;0.25;;;;;17.95;45.19;99341.84;5097475;27;50951;-48
2021/12/27 06:37:44;;;;;;;;;0.50;0.50;;;;;17.95;45.39;99325.41;5096731;27;51784;-51
2021/12/27 06:40:12;;;;;;;;;1.50;1.50;;;;;17.96;45.14;99318.84;5097046;27;50963;-52
2021/12/27 06:42:38;;;;;;;;;1.25;1.25;;;;;17.95;45.21;99314.44;5097087;27;51199;-50
2021/12/27 06:45:05;;;;;;;;;1.75;0.50;;;;;17.95;45.37;99312.53;5097151;27;51166;-48
2021/12/27 06:47:31;;;;;;;;;1.00;1.00;;;;;17.95;45.39;99298.84;5096561;27;52012;-47
2021/12/27 06:49:56;;;;;;;;;2.25;0.50;;;;;17.95;45.27;99306.22;5095536;27;52007;-46
2021/12/27 06:52:21;;;;;;;;;1.75;1.00;;;;;17.95;45.06;99307.06;5096834;27;51598;-46
2021/12/27 06:54:47;;;;;;;;;1.50;1.50;;;;;17.95;45.28;99303.50;5096857;27;51133;-48
2021/12/27 06:57:13;;;;;;;;;1.75;1.75;;;;;17.96;45.27;99310.63;5096288;27;51985;-47
2021/12/27 06:59:39;;;;;;;;;1.50;1.50;;;;;17.97;45.12;99306.81;5096803;27;50969;-46
2021/12/27 07:02:05;;;;;;;;;0.00;0.00;;;;;17.96;45.24;99316.09;5097126;27;51280;-49
2021/12/27 07:04:31;;;;;;;;;1.75;1.25;;;;;17.95;45.08;99312.53;5096881;27;50938;-47
2021/12/27 07:06:57;;;;;;;;;0.50;0.50;;;;;17.96;45.33;99316.09;5096251;27;51874;-48
2021/12/27 07:09:22;;;;;;;;;1.75;1.75;;;;;17.96;45.02;99316.09;5096480;27;51017;-49
2021/12/27 07:11:48;;;;;;;;;0.75;0.75;;;;;17.95;45.04;99312.53;5096990;27;51112;-52
2021/12/27 07:14:13;;;;;;;;;1.50;1.50;;;;;17.95;45.45;99314.44;5096741;27;51120;-53
2021/12/27 07:16:38;;;;;;;;;0.50;0.50;;;;;17.95;45.42;99317.19;5096402;27;51083;-52
2021/12/27 07:19:04;;;;;;;;;2.00;1.00;;;;;17.95;45.09;99315.28;5077683;27;51205;-48
2021/12/27 07:21:29;;;;;;;;;1.00;0.75;;;;;17.95;45.17;99314.44;5076031;27;51615;-45
2021/12/27 07:23:54;;;;;;;;;1.25;1.25;;;;;17.95;45.14;99311.72;5076303;28;50953;-51
2021/12/27 07:26:20;;;;;;;;;2.00;1.25;;;;;17.94;45.11;99299.91;5080298;27;50963;-49
2021/12/27 07:28:45;;;;;;;;;2.00;0.25;;;;;17.94;45.21;99308.13;5096222;27;51005;-50
2021/12/27 07:31:11;;;;;;;;;1.75;0.75;;;;;17.94;45.38;99307.31;5097446;27;51356;-49
2021/12/27 07:33:37;;;;;;;;;1.00;1.00;;;;;17.94;45.18;99307.31;5100225;27;51084;-51
2021/12/27 07:36:06;;;;;;;;;2.00;2.00;;;;;17.94;45.27;99316.34;5099737;27;51869;-52
2021/12/27 07:38:31;;;;;;;;;2.75;1.00;;;;;17.94;45.09;99324.56;5099734;27;51292;-51
2021/12/27 07:40:57;;;;;;;;;1.75;1.00;;;;;17.94;44.89;99324.56;5100035;27;51024;-52
2021/12/27 07:43:22;;;;;;;;;0.50;0.50;;;;;17.93;45.14;99333.88;5100324;27;51161;-51
2021/12/27 07:45:48;;;;;;;;;1.25;0.75;;;;;17.94;45.30;99327.31;5099691;27;51774;-51
2021/12/27 07:48:13;;;;;;;;;0.75;0.25;;;;;17.94;45.23;99321.00;5099698;27;50929;-49
2021/12/27 07:50:38;;;;;;;;;1.00;0.75;;;;;17.94;45.14;99308.13;5100055;27;51602;-51
2021/12/27 07:53:05;;;;;;;;;1.25;1.00;;;;;17.94;45.07;99310.03;5099805;27;51146;-49
2021/12/27 07:55:32;;;;;;;;;2.00;1.25;;;;;17.94;45.30;99318.25;5099427;27;52053;-49
2021/12/27 07:57:58;;;;;;;;;2.25;2.25;;;;;17.93;45.22;99322.09;5099596;27;50936;-52
2021/12/27 08:00:24;;;;;;;;;1.75;1.75;;;;;17.93;45.10;99322.09;5100143;27;51396;-49
2021/12/27 08:02:50;;;;;;;;;0.75;0.75;;;;;17.93;45.29;99311.13;5099508;27;51455;-51
2021/12/27 08:05:16;;;;;;;;;2.00;1.75;;;;;17.93;44.95;99308.38;5097973;27;51606;-48
2021/12/27 08:07:42;;;;;;;;;1.25;1.25;;;;;17.92;45.39;99304.78;5099309;27;51183;-50
2021/12/27 08:10:09;;;;;;;;;2.00;1.00;;;;;17.93;45.00;99306.47;5099196;27;51064;-51
2021/12/27 08:12:36;;;;;;;;;2.00;2.00;;;;;17.94;45.11;99301.81;5099706;27;50941;-49
2021/12/27 08:15:03;;;;;;;;;1.75;1.75;;;;;17.92;44.99;99302.03;5099048;27;50930;-51
2021/12/27 08:17:28;;;;;;;;;1.00;1.00;;;;;17.92;45.19;99310.25;5093902;27;50972;-50
2021/12/27 08:19:54;;;;;;;;;2.75;2.00;;;;;17.93;45.10;99309.22;5078761;27;51105;-50
2021/12/27 08:22:19;;;;;;;;;1.75;1.00;;;;;17.93;45.41;99300.16;5078581;28;52035;-53
2021/12/27 08:24:44;;;;;;;;;1.50;1.50;;;;;17.93;45.14;99311.97;5078532;28;51532;-51
2021/12/27 08:27:10;;;;;;;;;3.00;1.25;;;;;17.94;45.25;99296.34;5089922;27;51168;-52
2021/12/27 08:29:35;;;;;;;;;0.75;0.75;;;;;17.93;44.96;99294.69;5099164;27;51019;-48
2021/12/27 08:32:01;;;;;;;;;1.50;1.25;;;;;17.93;45.00;99294.69;5099353;27;51238;-48
2021/12/27 08:34:27;;;;;;;;;1.00;1.00;;;;;17.93;45.35;99289.22;5098500;27;51250;-49
2021/12/27 08:36:53;;;;;;;;;2.00;2.00;;;;;17.92;44.89;99282.88;5098355;27;51469;-49
2021/12/27 08:39:18;;;;;;;;;1.50;1.25;;;;;17.93;45.11;99289.22;5098950;27;51247;-46
2021/12/27 08:41:44;;;;;;;;;1.00;1.00;;;;;17.93;45.06;99294.69;5099129;27;51606;-50
2021/12/27 08:44:09;;;;;;;;;3.75;2.50;;;;;17.94;45.14;99290.88;5097968;27;51803;-46
2021/12/27 08:46:35;;;;;;;;;3.00;1.75;;;;;17.93;45.25;99283.72;5098403;27;51068;-48
2021/12/27 08:49:02;;;;;;;;;3.00;1.00;;;;;17.93;45.03;99284.56;5098707;27;50976;-50
2021/12/27 08:51:27;;;;;;;;;2.00;1.75;;;;;17.93;44.90;99286.47;5098633;27;51262;-52
2021/12/27 08:53:53;;;;;;;;;3.00;3.00;;;;;17.93;44.98;99289.22;5098306;27;51869;-47
2021/12/27 08:56:18;;;;;;;;;3.25;2.00;;;;;17.93;44.85;99278.25;5098504;27;51012;-50
2021/12/27 08:58:44;;;;;;;;;3.50;2.25;;;;;17.93;45.27;99267.28;5098395;27;51498;-51
2021/12/27 09:01:09;;;;;;;;;2.00;1.00;;;;;17.93;44.92;99270.88;5098586;27;51112;-51
2021/12/27 09:03:35;;;;;;;;;4.50;1.25;;;;;17.94;45.05;99268.94;5098174;27;51074;-51
2021/12/27 09:06:01;;;;;;;;;3.00;3.00;;;;;17.93;44.95;99261.81;5098665;27;50991;-52
2021/12/27 09:08:27;;;;;;;;;2.25;1.25;;;;;17.93;45.25;99270.03;5098112;27;51143;-52
2021/12/27 09:10:57;;;;;;;;;3.00;3.00;;;;;17.93;45.03;99267.28;5098323;27;51009;-51
2021/12/27 09:13:24;;;;;;;;;2.75;2.75;;;;;17.92;45.12;99271.06;5097989;27;51901;-47
2021/12/27 09:15:49;;;;;;;;;2.00;2.00;;;;;17.93;45.00;99276.34;5097858;27;51134;-50
2021/12/27 09:18:14;;;;;;;;;3.00;3.00;;;;;17.94;45.12;99266.22;5087195;27;51068;-49
2021/12/27 09:20:40;;;;;;;;;2.50;2.50;;;;;17.93;44.98;99272.78;5077288;27;51000;-49
2021/12/27 09:23:05;;;;;;;;;2.50;2.00;;;;;17.94;45.29;99266.22;5077308;28;51723;-51
2021/12/27 09:25:31;;;;;;;;;3.00;3.00;;;;;17.93;44.97;99259.06;5077517;27;51103;-51
2021/12/27 09:27:56;;;;;;;;;3.00;3.00;;;;;17.92;45.29;99266.44;5095681;27;51034;-49
2021/12/27 09:30:21;;;;;;;;;4.25;2.00;;;;;17.93;44.71;99259.06;5098306;27;51021;-49
2021/12/27 09:32:48;;;;;;;;;4.75;2.75;;;;;17.93;45.37;99267.28;5097685;27;52033;-48
2021/12/27 09:35:14;;;;;;;;;2.00;2.00;;;;;17.93;45.10;99257.16;5097522;27;51527;-49
2021/12/27 09:37:40;;;;;;;;;4.25;2.75;;;;;17.93;45.06;99261.81;5097709;27;51184;-49
2021/12/27 09:40:06;;;;;;;;;2.00;2.00;;;;;17.92;45.00;99254.63;5098057;27;50922;-50
2021/12/27 09:42:35;;;;;;;;;1.75;1.50;;;;;17.93;45.04;99253.59;5097296;27;51023;-50
2021/12/27 09:45:01;;;;;;;;;2.00;2.00;;;;;17.92;45.05;99252.72;5097772;27;51027;-47
2021/12/27 09:47:26;;;;;;;;;2.25;2.00;;;;;17.93;45.22;99253.59;5097542;27;51190;-51
2021/12/27 09:49:51;;;;;;;;;2.50;2.50;;;;;17.91;45.28;99248.34;5097476;27;51029;-46
2021/12/27 09:52:17;;;;;;;;;2.50;1.75;;;;;17.94;45.29;99252.50;5097076;27;51742;-51
2021/12/27 09:54:46;;;;;;;;;3.25;3.25;;;;;17.92;45.30;99244.50;5096139;27;51151;-51
2021/12/27 09:57:12;;;;;;;;;2.00;2.00;;;;;17.93;45.27;99239.91;5097094;27;51083;-51
2021/12/27 09:59:38;;;;;;;;;5.00;1.50;;;;;17.93;45.24;99245.38;5097650;27;51149;-46
2021/12/27 10:02:03;;;;;;;;;1.00;1.00;;;;;17.92;45.16;99235.47;5097235;27;51814;-52
2021/12/27 10:04:29;;;;;;;;;1.75;1.25;;;;;17.93;45.11;99242.63;5097420;27;50983;-48
2021/12/27 10:06:55;;;;;;;;;1.50;1.50;;;;;17.92;45.20;99249.16;5097118;27;51024;-51
2021/12/27 10:09:21;;;;;;;;;3.00;3.00;;;;;17.92;45.17;99249.16;5097394;27;51015;-49
2021/12/27 10:11:47;;;;;;;;;2.75;2.00;;;;;17.92;45.27;99247.25;5095400;27;52845;-50
2021/12/27 10:14:17;;;;;;;;;2.00;1.25;;;;;17.92;45.37;99244.50;5096717;27;51380;-50
2021/12/27 10:16:49;;;;;;;;;2.00;2.00;;;;;17.93;45.06;99245.38;5096745;27;51064;-51
2021/12/27 10:19:17;;;;;;;;;2.75;2.50;;;;;17.93;44.68;99253.59;5076451;27;51014;-49
2021/12/27 10:21:44;;;;;;;;;2.00;2.00;;;;;17.93;45.22;99248.13;5075907;27;50983;-48
2021/12/27 10:24:16;;;;;;;;;2.00;2.00;;;;;17.93;44.94;99248.13;5076200;27;51059;-52
2021/12/27 10:26:49;;;;;;;;;2.00;2.00;;;;;17.93;45.13;99248.13;5083781;27;50964;-49
2021/12/27 10:29:16;;;;;;;;;2.50;0.75;;;;;17.94;45.09;99241.56;5096811;27;51021;-50
2021/12/27 10:32:00;;;;;;;;;3.50;1.75;;;;;17.93;45.07;99242.63;5096470;27;51831;-51
2021/12/27 10:34:31;;;;;;;;;1.75;1.75;;;;;17.93;45.13;99239.91;5096138;27;50956;-51
2021/12/27 10:37:01;;;;;;;;;2.50;2.00;;;;;17.92;45.22;99239.03;5096193;27;51172;-48
2021/12/27 10:39:46;;;;;;;;;1.75;0.75;;;;;17.93;44.99;99242.63;5096575;27;51120;-49
2021/12/27 10:42:16;;;;;;;;;2.50;2.50;;;;;17.91;45.21;99226.41;5096239;27;51992;-48
2021/12/27 10:44:42;;;;;;;;;2.25;2.25;;;;;17.93;45.08;99228.94;5096366;27;51490;-51
2021/12/27 10:47:30;;;;;;;;;1.00;1.00;;;;;17.89;45.16;99217.63;5096453;27;51036;-52
2021/12/27 10:50:03;;;;;;;;;1.75;1.75;;;;;17.93;45.19;99224.28;5096379;27;51322;-48
2021/12/27 10:53:05;;;;;;;;;2.00;2.00;;;;;17.92;45.29;99230.81;5095838;27;52029;-50
2021/12/27 10:55:38;;;;;;;;;1.00;0.75;;;;;17.92;45.23;99238.19;5063379;27;51008;-47
2021/12/27 10:58:20;;;;;;;;;1.75;1.75;;;;;17.91;45.12;99233.81;5096047;27;51293;-49
2021/12/27 11:00:49;;;;;;;;;1.00;1.00;;;;;17.92;44.99;99236.28;5096008;27;51181;-49
2021/12/27 11:03:31;;;;;;;;;4.00;2.00;;;;;17.92;45.35;99240.94;5095935;27;51137;-50
2021/12/27 11:05:58;;;;;;;;;1.00;1.00;;;;;17.92;45.05;99235.47;5095518;27;50956;-50
2021/12/27 11:08:26;;;;;;;;;2.25;1.00;;;;;17.91;45.24;99237.38;5095974;27;50990;-49
2021/12/27 11:10:52;;;;;;;;;1.00;1.00;;;;;17.93;45.18;99257.16;5095978;27;51031;-48
2021/12/27 11:13:17;;;;;;;;;3.00;2.00;;;;;17.93;45.28;99250.84;5095607;27;51845;-48
2021/12/27 11:15:43;;;;;;;;;2.25;2.25;;;;;17.93;45.28;99245.38;5095214;27;51158;-48
2021/12/27 11:18:12;;;;;;;;;2.25;1.25;;;;;17.93;45.04;99259.06;5088974;27;51215;-49
2021/12/27 11:20:43;;;;;;;;;2.00;2.00;;;;;17.92;45.18;99255.47;5075877;27;50888;-53
2021/12/27 11:23:10;;;;;;;;;0.00;0.00;;;;;17.92;45.25;99251.91;5074947;27;52261;-53
2021/12/27 11:25:38;;;;;;;;;0.25;0.25;;;;;17.93;45.02;99254.44;5075501;27;51058;-55
2021/12/27 11:28:23;;;;;;;;;1.50;1.50;;;;;17.93;45.37;99257.16;5093814;27;51887;-51
2021/12/27 11:30:48;;;;;;;;;1.00;1.00;;;;;17.93;45.27;99261.81;5095888;27;51107;-51
2021/12/27 11:33:14;;;;;;;;;1.00;1.00;;;;;17.92;45.23;99250.00;5095361;27;51737;-49
2021/12/27 11:36:04;;;;;;;;;1.50;1.50;;;;;17.93;45.29;99248.13;5095415;27;51131;-49
2021/12/27 11:38:35;;;;;;;;;2.25;2.25;;;;;17.92;45.16;99243.69;5095548;27;51226;-50